createdAt,value
2022-08-19T00:00:13.460Z,24.88
2022-08-19T00:03:01.735Z,24.84
2022-08-19T00:05:30.148Z,24.81
2022-08-19T00:07:58.586Z,24.76
2022-08-19T00:10:27.134Z,24.71
2022-08-19T00:12:55.466Z,24.67
2022-08-19T00:15:23.813Z,24.62
2022-08-19T00:17:52.171Z,24.56
2022-08-19T00:20:22.442Z,24.51
2022-08-19T00:22:51.162Z,24.45
2022-08-19T00:25:19.561Z,24.39
2022-08-19T00:28:00.434Z,24.31
2022-08-19T00:30:29.663Z,24.25
2022-08-19T00:32:59.074Z,24.20
2022-08-19T00:35:30.925Z,24.13
2022-08-19T00:37:59.464Z,24.07
2022-08-19T00:40:27.821Z,24.03
2022-08-19T00:42:56.096Z,23.99
2022-08-19T00:45:29.222Z,23.96
2022-08-19T00:47:57.591Z,23.95
2022-08-19T00:50:25.983Z,23.94
2022-08-19T00:52:54.522Z,23.93
2022-08-19T00:55:29.032Z,23.93
2022-08-19T00:58:08.499Z,23.94
2022-08-19T01:00:38.345Z,23.94
2022-08-19T01:03:14.902Z,23.94
2022-08-19T01:05:46.831Z,23.94
2022-08-19T01:08:18.063Z,23.94
2022-08-19T01:10:55.435Z,23.94
2022-08-19T01:13:30.264Z,23.99
2022-08-19T01:16:21.688Z,24.05
2022-08-19T01:18:51.028Z,24.09
2022-08-19T01:21:26.254Z,24.14
2022-08-19T01:23:54.724Z,24.10
2022-08-19T01:26:26.312Z,24.08
2022-08-19T01:29:00.689Z,24.06
2022-08-19T01:31:33.451Z,24.02
2022-08-19T01:34:03.110Z,23.99
2022-08-19T01:36:42.921Z,23.96
2022-08-19T01:39:22.859Z,23.93
2022-08-19T01:41:55.303Z,23.88
2022-08-19T01:44:25.078Z,23.84
2022-08-19T01:46:53.503Z,23.80
2022-08-19T01:49:26.077Z,23.75
2022-08-19T01:51:55.750Z,23.71
2022-08-19T01:54:27.524Z,23.67
2022-08-19T01:57:07.802Z,23.61
2022-08-19T01:59:37.587Z,23.57
2022-08-19T02:02:09.428Z,23.52
2022-08-19T02:04:39.126Z,23.47
2022-08-19T02:07:09.145Z,23.42
2022-08-19T02:09:37.707Z,23.38
2022-08-19T02:12:10.166Z,23.34
2022-08-19T02:14:38.506Z,23.27
2022-08-19T02:17:07.215Z,23.19
2022-08-19T02:19:35.763Z,23.11
2022-08-19T02:22:07.942Z,23.01
2022-08-19T02:24:36.196Z,22.94
2022-08-19T02:27:05.937Z,22.89
2022-08-19T02:29:34.344Z,22.85
2022-08-19T02:32:03.036Z,22.79
2022-08-19T02:34:31.471Z,22.74
2022-08-19T02:37:03.596Z,22.70
2022-08-19T02:39:32.641Z,22.65
2022-08-19T02:42:03.052Z,22.60
2022-08-19T02:44:32.094Z,22.55
2022-08-19T02:47:00.488Z,22.49
2022-08-19T02:49:28.819Z,22.44
2022-08-19T02:51:57.087Z,22.39
2022-08-19T02:54:25.388Z,22.35
2022-08-19T02:56:53.746Z,22.31
2022-08-19T02:59:22.986Z,22.28
2022-08-19T03:01:51.560Z,22.23
2022-08-19T03:04:20.527Z,22.19
2022-08-19T03:06:50.292Z,22.15
2022-08-19T03:09:20.980Z,22.10
2022-08-19T03:11:52.037Z,22.07
2022-08-19T03:14:21.596Z,22.03
2022-08-19T03:16:53.585Z,21.97
2022-08-19T03:19:24.845Z,21.90
2022-08-19T03:21:53.645Z,21.84
2022-08-19T03:24:22.711Z,21.78
2022-08-19T03:26:58.698Z,21.73
2022-08-19T03:29:31.786Z,21.68
2022-08-19T03:32:04.762Z,21.63
2022-08-19T03:34:35.808Z,21.59
2022-08-19T03:37:10.640Z,21.56
2022-08-19T03:39:41.108Z,21.52
2022-08-19T03:42:47.863Z,21.48
2022-08-19T03:44:59.436Z,21.44
2022-08-19T03:47:27.807Z,21.42
2022-08-19T03:49:56.595Z,21.39
2022-08-19T03:52:24.890Z,21.37
2022-08-19T03:54:53.257Z,21.35
2022-08-19T03:57:21.634Z,21.34
2022-08-19T04:00:12.978Z,21.32
2022-08-19T04:02:58.178Z,21.30
2022-08-19T04:05:30.263Z,21.29
2022-08-19T04:07:59.862Z,21.28
2022-08-19T04:10:29.441Z,21.28
2022-08-19T04:12:57.828Z,21.28
2022-08-19T04:15:26.120Z,21.28
2022-08-19T04:17:54.424Z,21.28
2022-08-19T04:20:22.782Z,21.30
2022-08-19T04:22:51.023Z,21.31
2022-08-19T04:25:19.320Z,21.32
2022-08-19T04:27:47.955Z,21.34
2022-08-19T04:30:16.412Z,21.41
2022-08-19T04:32:44.893Z,21.58
2022-08-19T04:35:17.621Z,21.75
2022-08-19T04:37:47.636Z,21.92
2022-08-19T04:40:35.009Z,22.05
2022-08-19T04:43:03.392Z,22.08
2022-08-19T04:45:39.573Z,22.12
2022-08-19T04:48:27.262Z,22.17
2022-08-19T04:50:58.687Z,22.23
2022-08-19T04:53:37.980Z,22.28
2022-08-19T04:56:12.878Z,22.33
2022-08-19T04:58:44.046Z,22.38
2022-08-19T05:01:20.343Z,22.43
2022-08-19T05:03:50.192Z,22.48
2022-08-19T05:06:21.800Z,22.55
2022-08-19T05:08:51.024Z,22.59
2022-08-19T05:11:29.422Z,22.64
2022-08-19T05:13:58.876Z,22.71
2022-08-19T05:16:28.712Z,22.78
2022-08-19T05:19:15.870Z,22.85
2022-08-19T05:22:03.876Z,22.94
2022-08-19T05:24:35.187Z,22.99
2022-08-19T05:27:06.651Z,23.04
2022-08-19T05:29:36.578Z,23.10
2022-08-19T05:32:09.288Z,23.15
2022-08-19T05:34:41.661Z,23.20
2022-08-19T05:37:10.106Z,23.25
2022-08-19T05:39:39.114Z,23.30
2022-08-19T05:42:11.255Z,23.34
2022-08-19T05:44:45.236Z,23.39
2022-08-19T05:47:15.978Z,23.44
2022-08-19T05:49:44.982Z,23.51
2022-08-19T05:52:19.561Z,23.56
2022-08-19T05:54:56.715Z,23.62
2022-08-19T05:57:25.828Z,23.67
2022-08-19T05:59:58.218Z,23.71
2022-08-19T06:02:29.344Z,23.77
2022-08-19T06:04:57.694Z,23.84
2022-08-19T06:07:26.695Z,23.90
2022-08-19T06:10:00.192Z,23.95
2022-08-19T06:12:33.981Z,24.01
2022-08-19T06:15:12.606Z,24.06
2022-08-19T06:17:42.706Z,24.14
2022-08-19T06:20:15.903Z,24.23
2022-08-19T06:22:47.088Z,24.30
2022-08-19T06:25:15.874Z,24.38
2022-08-19T06:28:11.537Z,24.46
2022-08-19T06:30:34.137Z,24.64
2022-08-19T06:33:02.485Z,24.83
2022-08-19T06:35:30.924Z,24.98
2022-08-19T06:38:00.600Z,25.15
2022-08-19T06:40:28.878Z,25.27
2022-08-19T06:42:58.611Z,25.32
2022-08-19T06:45:34.560Z,25.38
2022-08-19T06:48:04.160Z,25.44
2022-08-19T06:50:32.497Z,25.53
2022-08-19T06:53:04.370Z,25.61
2022-08-19T06:55:33.413Z,25.68
2022-08-19T06:58:06.143Z,25.78
2022-08-19T07:00:34.831Z,25.90
2022-08-19T07:03:07.774Z,26.00
2022-08-19T07:05:45.827Z,26.12
2022-08-19T07:08:15.401Z,26.23
2022-08-19T07:10:50.206Z,26.33
2022-08-19T07:13:18.677Z,26.46
2022-08-19T07:15:47.972Z,26.56
2022-08-19T07:18:16.608Z,26.68
2022-08-19T07:20:45.700Z,26.82
2022-08-19T07:23:15.962Z,26.94
2022-08-19T07:25:53.067Z,27.07
2022-08-19T07:28:23.985Z,27.18
2022-08-19T07:30:54.024Z,27.28
2022-08-19T07:33:23.973Z,27.38
2022-08-19T07:35:56.397Z,27.46
2022-08-19T07:38:25.639Z,27.58
2022-08-19T07:40:55.522Z,27.80
2022-08-19T07:43:34.894Z,28.01
2022-08-19T07:46:04.436Z,28.15
2022-08-19T07:48:33.549Z,28.30
2022-08-19T07:51:07.284Z,28.42
2022-08-19T07:53:51.777Z,28.60
2022-08-19T07:56:21.896Z,28.79
2022-08-19T07:58:53.043Z,28.89
2022-08-19T08:01:27.490Z,28.95
2022-08-19T08:04:15.994Z,29.07
2022-08-19T08:07:19.504Z,29.22
2022-08-19T08:09:50.257Z,29.34
2022-08-19T08:12:34.707Z,29.45
2022-08-19T08:15:12.740Z,29.62
2022-08-19T08:17:49.025Z,29.82
2022-08-19T08:20:19.675Z,29.97
2022-08-19T08:23:07.527Z,30.09
2022-08-19T08:25:37.415Z,30.15
2022-08-19T08:28:06.713Z,30.21
2022-08-19T08:33:39.544Z,30.41
2022-08-19T08:36:14.694Z,30.54
2022-08-19T08:41:32.947Z,30.81
2022-08-19T08:44:05.321Z,30.91
2022-08-19T08:56:26.441Z,31.18
2022-08-19T08:59:36.910Z,31.09
2022-08-19T09:02:41.869Z,31.14
2022-08-19T09:05:16.868Z,31.21
2022-08-19T09:11:42.624Z,31.37
2022-08-19T09:14:56.658Z,31.50
2022-08-19T09:17:32.066Z,31.72
2022-08-19T09:20:24.019Z,31.92
2022-08-19T09:22:54.745Z,32.14
2022-08-19T09:25:24.779Z,32.33
2022-08-19T09:28:02.846Z,32.51
2022-08-19T09:30:43.654Z,32.72
2022-08-19T09:33:13.594Z,32.93
2022-08-19T09:35:49.884Z,33.18
2022-08-19T09:38:22.783Z,33.48
2022-08-19T09:40:51.338Z,33.74
2022-08-19T09:43:33.237Z,33.75
2022-08-19T09:46:10.432Z,33.91
2022-08-19T09:48:41.516Z,34.01
2022-08-19T09:51:18.507Z,34.02
2022-08-19T09:53:52.046Z,34.22
2022-08-19T09:56:23.583Z,34.41
2022-08-19T09:58:52.957Z,34.50
2022-08-19T10:01:27.083Z,34.57
2022-08-19T10:04:00.458Z,34.77
2022-08-19T10:06:43.973Z,35.08
2022-08-19T10:09:18.633Z,35.34
2022-08-19T10:12:04.540Z,35.57
2022-08-19T10:14:35.637Z,35.81
2022-08-19T10:17:17.432Z,36.05
2022-08-19T10:19:52.673Z,36.20
2022-08-19T10:22:25.713Z,36.29
2022-08-19T10:24:56.674Z,36.17
2022-08-19T10:27:26.383Z,35.91
2022-08-19T10:29:55.244Z,35.75
2022-08-19T10:32:34.256Z,35.53
2022-08-19T10:35:09.353Z,35.38
2022-08-19T10:37:42.295Z,35.41
2022-08-19T10:40:28.982Z,35.34
2022-08-19T10:42:57.537Z,35.37
2022-08-19T10:45:32.390Z,35.39
2022-08-19T10:48:01.225Z,35.37
2022-08-19T10:50:49.924Z,35.47
2022-08-19T10:53:18.310Z,35.55
2022-08-19T10:56:05.364Z,35.72
2022-08-19T10:58:33.768Z,35.80
2022-08-19T11:01:02.315Z,35.82
2022-08-19T11:03:31.638Z,35.94
2022-08-19T11:06:07.752Z,36.06
2022-08-19T11:08:38.725Z,35.98
2022-08-19T11:11:09.103Z,35.85
2022-08-19T11:13:41.230Z,35.70
2022-08-19T11:16:14.369Z,35.53
2022-08-19T11:18:55.267Z,35.31
2022-08-19T11:21:34.001Z,35.14
2022-08-19T11:24:07.826Z,34.93
2022-08-19T11:26:41.912Z,34.72
2022-08-19T11:29:14.239Z,34.54
2022-08-19T11:31:47.100Z,34.41
2022-08-19T11:34:23.812Z,34.35
2022-08-19T11:36:56.009Z,34.31
2022-08-19T11:39:26.556Z,34.23
2022-08-19T11:41:55.346Z,34.15
2022-08-19T11:44:23.690Z,34.11
2022-08-19T11:46:53.951Z,34.10
2022-08-19T11:49:22.369Z,34.14
2022-08-19T11:51:51.745Z,34.28
2022-08-19T11:54:22.418Z,34.49
2022-08-19T11:56:50.887Z,34.99
2022-08-19T11:59:19.256Z,35.57
2022-08-19T12:01:47.576Z,36.06
2022-08-19T12:04:15.909Z,36.40
2022-08-19T12:06:46.956Z,36.70
2022-08-19T12:09:16.544Z,37.03
2022-08-19T12:11:45.084Z,37.20
2022-08-19T12:14:19.948Z,37.45
2022-08-19T12:16:49.050Z,37.64
2022-08-19T12:19:21.870Z,37.74
2022-08-19T12:21:54.442Z,37.80
2022-08-19T12:24:24.472Z,37.81
2022-08-19T12:26:54.444Z,37.90
2022-08-19T12:29:25.108Z,38.03
2022-08-19T12:31:53.434Z,38.16
2022-08-19T12:34:23.110Z,38.46
2022-08-19T12:36:51.525Z,38.75
2022-08-19T12:39:19.902Z,38.89
2022-08-19T12:41:54.047Z,38.92
2022-08-19T12:44:29.357Z,38.95
2022-08-19T12:47:06.140Z,39.03
2022-08-19T12:49:53.187Z,39.15
2022-08-19T12:52:28.091Z,39.22
2022-08-19T12:54:58.274Z,39.23
2022-08-19T12:57:32.306Z,39.37
2022-08-19T13:00:14.439Z,39.46
2022-08-19T13:02:48.302Z,39.47
2022-08-19T13:05:26.772Z,39.52
2022-08-19T13:08:01.123Z,39.55
2022-08-19T13:10:35.856Z,39.46
2022-08-19T13:13:10.907Z,39.34
2022-08-19T13:15:42.487Z,39.34
2022-08-19T13:18:13.580Z,39.38
2022-08-19T13:20:42.424Z,39.40
2022-08-19T13:23:20.964Z,39.43
2022-08-19T13:26:03.347Z,39.45
2022-08-19T13:28:57.402Z,39.42
2022-08-19T13:31:51.929Z,39.16
2022-08-19T13:34:40.407Z,38.86
2022-08-19T13:37:08.894Z,38.56
2022-08-19T13:39:37.942Z,38.20
2022-08-19T13:42:08.256Z,37.74
2022-08-19T13:44:36.792Z,37.29
2022-08-19T13:47:07.905Z,36.93
2022-08-19T13:49:37.414Z,36.64
2022-08-19T13:52:06.856Z,36.41
2022-08-19T13:54:35.318Z,36.20
2022-08-19T13:57:03.999Z,36.03
2022-08-19T13:59:33.531Z,35.87
2022-08-19T14:02:02.135Z,35.70
2022-08-19T14:04:30.482Z,35.56
2022-08-19T14:06:58.876Z,35.43
2022-08-19T14:09:27.201Z,35.22
2022-08-19T14:11:56.359Z,35.00
2022-08-19T14:14:24.739Z,34.79
2022-08-19T14:16:53.098Z,34.59
2022-08-19T14:19:22.357Z,34.42
2022-08-19T14:21:51.947Z,34.25
2022-08-19T14:24:20.412Z,34.09
2022-08-19T14:26:48.995Z,33.95
2022-08-19T14:29:17.665Z,33.85
2022-08-19T14:31:46.081Z,33.77
2022-08-19T14:34:14.513Z,33.73
2022-08-19T14:36:43.086Z,33.72
2022-08-19T14:39:11.608Z,33.63
2022-08-19T14:41:42.991Z,33.52
2022-08-19T14:44:13.481Z,33.43
2022-08-19T14:46:41.885Z,33.40
2022-08-19T14:49:20.594Z,33.41
2022-08-19T14:51:58.049Z,33.37
2022-08-19T14:54:26.704Z,33.31
2022-08-19T14:56:58.826Z,33.27
2022-08-19T14:59:28.292Z,33.22
2022-08-19T15:01:56.645Z,33.17
2022-08-19T15:04:25.041Z,33.15
2022-08-19T15:06:53.351Z,33.14
2022-08-19T15:09:21.731Z,33.14
2022-08-19T15:11:51.721Z,33.13
2022-08-19T15:14:21.971Z,33.12
2022-08-19T15:16:50.566Z,33.12
2022-08-19T15:19:19.455Z,33.12
2022-08-19T15:21:47.870Z,33.10
2022-08-19T15:24:16.262Z,33.11
2022-08-19T15:26:45.064Z,33.12
2022-08-19T15:29:16.774Z,33.11
2022-08-19T15:31:46.037Z,33.07
2022-08-19T15:34:18.022Z,33.00
2022-08-19T15:36:46.317Z,32.93
2022-08-19T15:39:14.713Z,32.86
2022-08-19T15:41:43.332Z,32.78
2022-08-19T15:44:18.527Z,32.69
2022-08-19T15:46:49.375Z,32.59
2022-08-19T15:49:19.474Z,32.47
2022-08-19T15:51:51.790Z,32.36
2022-08-19T15:54:21.953Z,32.27
2022-08-19T15:57:10.635Z,32.16
2022-08-19T16:00:00.099Z,32.03
2022-08-19T16:02:53.668Z,31.89
2022-08-19T16:05:45.291Z,31.76
2022-08-19T16:08:13.813Z,31.63
2022-08-19T16:10:42.686Z,31.52
2022-08-19T16:13:11.016Z,31.43
2022-08-19T16:15:41.986Z,31.34
2022-08-19T16:18:10.659Z,31.27
2022-08-19T16:20:39.333Z,31.27
2022-08-19T16:23:08.002Z,31.28
2022-08-19T16:25:36.579Z,31.36
2022-08-19T16:28:07.231Z,31.55
2022-08-19T16:30:41.790Z,31.83
2022-08-19T16:33:10.975Z,32.27
2022-08-19T16:35:39.640Z,32.59
2022-08-19T16:38:08.048Z,32.60
2022-08-19T16:40:36.438Z,32.52
2022-08-19T16:43:05.432Z,32.40
2022-08-19T16:45:34.089Z,32.21
2022-08-19T16:48:03.929Z,32.05
2022-08-19T16:50:48.680Z,31.96
2022-08-19T16:53:22.015Z,31.83
2022-08-19T16:55:50.900Z,31.72
2022-08-19T16:58:19.951Z,31.61
2022-08-19T17:00:50.137Z,31.50
2022-08-19T17:03:35.941Z,31.40
2022-08-19T17:06:20.608Z,31.29
2022-08-19T17:08:58.755Z,31.21
2022-08-19T17:11:37.097Z,31.14
2022-08-19T17:14:06.271Z,31.10
2022-08-19T17:16:40.418Z,31.01
2022-08-19T17:19:08.922Z,30.91
2022-08-19T17:21:40.524Z,30.82
2022-08-19T17:24:09.089Z,30.73
2022-08-19T17:26:38.156Z,30.64
2022-08-19T17:29:06.425Z,30.57
2022-08-19T17:31:35.266Z,30.49
2022-08-19T17:34:04.580Z,30.37
2022-08-19T17:36:34.050Z,30.22
2022-08-19T17:39:05.291Z,30.06
2022-08-19T17:41:34.603Z,29.91
2022-08-19T17:44:04.260Z,29.80
2022-08-19T17:46:34.085Z,29.71
2022-08-19T17:49:02.854Z,29.61
2022-08-19T17:51:33.974Z,29.52
2022-08-19T17:54:05.627Z,29.40
2022-08-19T17:56:34.472Z,29.20
2022-08-19T17:59:02.759Z,28.99
2022-08-19T18:01:45.814Z,28.77
2022-08-19T18:04:22.460Z,28.52
2022-08-19T18:06:53.368Z,28.40
2022-08-19T18:09:27.088Z,28.31
2022-08-19T18:11:57.902Z,28.22
2022-08-19T18:14:34.575Z,28.12
2022-08-19T18:17:12.786Z,28.04
2022-08-19T18:19:43.960Z,27.99
2022-08-19T18:22:27.356Z,27.95
2022-08-19T18:24:57.836Z,27.84
2022-08-19T18:27:27.783Z,27.74
2022-08-19T18:29:59.409Z,27.68
2022-08-19T18:32:34.490Z,27.65
2022-08-19T18:35:05.830Z,27.63
2022-08-19T18:37:34.193Z,27.62
2022-08-19T18:40:21.492Z,27.58
2022-08-19T18:43:08.803Z,27.52
2022-08-19T18:45:58.203Z,27.40
2022-08-19T18:48:45.827Z,27.28
2022-08-19T18:51:16.346Z,27.20
2022-08-19T18:53:48.609Z,27.19
2022-08-19T18:56:19.988Z,27.19
2022-08-19T18:58:50.452Z,27.17
2022-08-19T19:01:29.765Z,27.16
2022-08-19T19:04:03.994Z,27.16
2022-08-19T19:06:40.137Z,27.17
2022-08-19T19:09:19.633Z,27.21
2022-08-19T19:11:55.631Z,27.24
2022-08-19T19:14:48.559Z,27.21
2022-08-19T19:17:25.738Z,27.22
2022-08-19T19:19:54.290Z,27.25
2022-08-19T19:22:24.082Z,27.22
2022-08-19T19:24:56.122Z,27.06
2022-08-19T19:27:24.408Z,26.83
2022-08-19T19:29:53.162Z,26.60
2022-08-19T19:32:27.142Z,26.42
2022-08-19T19:34:55.752Z,26.24
2022-08-19T19:37:24.109Z,26.09
2022-08-19T19:39:52.556Z,25.96
2022-08-19T19:42:23.751Z,25.82
2022-08-19T19:44:55.771Z,25.72
2022-08-19T19:47:28.545Z,25.62
2022-08-19T19:50:14.228Z,25.50
2022-08-19T19:52:46.683Z,25.38
2022-08-19T19:55:18.128Z,25.27
2022-08-19T19:57:49.865Z,25.14
2022-08-19T20:00:19.122Z,25.00
2022-08-19T20:02:50.662Z,24.90
2022-08-19T20:05:21.689Z,24.82
2022-08-19T20:08:11.788Z,24.72
2022-08-19T20:10:42.370Z,24.63
2022-08-19T20:13:15.420Z,24.56
2022-08-19T20:15:43.979Z,24.51
2022-08-19T20:18:14.514Z,24.46
2022-08-19T20:20:45.893Z,24.40
2022-08-19T20:23:14.430Z,24.36
2022-08-19T20:25:43.739Z,24.32
2022-08-19T20:28:12.616Z,24.28
2022-08-19T20:30:45.578Z,24.25
2022-08-19T20:33:15.022Z,24.17
2022-08-19T20:35:45.091Z,24.07
2022-08-19T20:38:13.989Z,23.94
2022-08-19T20:43:59.829Z,23.90
2022-08-19T20:56:32.640Z,23.94
2022-08-19T21:00:36.475Z,23.89
2022-08-19T21:03:05.534Z,23.81
2022-08-19T21:05:33.860Z,23.75
2022-08-19T21:08:03.762Z,23.69
2022-08-19T21:10:32.573Z,23.62
2022-08-19T21:13:03.770Z,23.56
2022-08-19T21:15:32.341Z,23.50
2022-08-19T21:18:00.749Z,23.44
2022-08-19T21:20:29.113Z,23.39
2022-08-19T21:22:57.416Z,23.33
2022-08-19T21:25:25.939Z,23.29
2022-08-19T21:27:54.340Z,23.25
2022-08-19T21:30:23.102Z,23.22
2022-08-19T21:32:52.856Z,23.19
2022-08-19T21:35:23.749Z,23.15
2022-08-19T21:37:52.391Z,23.10
2022-08-19T21:40:21.323Z,23.07
2022-08-19T21:42:49.647Z,23.03
2022-08-19T21:45:19.180Z,23.01
2022-08-19T21:47:47.513Z,22.98
2022-08-19T21:50:20.977Z,22.96
2022-08-19T21:52:49.400Z,22.95
2022-08-19T21:55:18.108Z,22.92
2022-08-19T22:01:30.368Z,22.87
2022-08-19T22:04:08.294Z,22.84
2022-08-19T22:06:36.662Z,22.80
2022-08-19T22:09:05.488Z,22.77
2022-08-19T22:11:34.677Z,22.75
2022-08-19T22:14:04.319Z,22.73
2022-08-19T22:16:33.060Z,22.70
2022-08-19T22:19:01.439Z,22.66
2022-08-19T22:21:35.592Z,22.60
2022-08-19T22:24:15.941Z,22.57
2022-08-19T22:26:44.360Z,22.53
2022-08-19T22:29:15.724Z,22.47
2022-08-19T22:31:45.687Z,22.42
2022-08-19T22:34:23.684Z,22.38
2022-08-19T22:36:52.800Z,22.34
2022-08-19T22:39:22.683Z,22.29
2022-08-19T22:41:51.077Z,22.24
2022-08-19T22:44:19.877Z,22.19
2022-08-19T22:46:49.418Z,22.15
2022-08-19T23:07:05.511Z,22.14
2022-08-19T23:09:34.063Z,22.15
2022-08-19T23:12:05.286Z,22.11
2022-08-19T23:14:36.474Z,22.07
2022-08-19T23:17:05.872Z,22.04
2022-08-19T23:19:34.680Z,22.00
2022-08-19T23:22:05.175Z,21.97
2022-08-19T23:24:33.570Z,21.93
2022-08-19T23:27:23.032Z,21.90
2022-08-19T23:30:11.777Z,21.87
2022-08-19T23:32:40.843Z,21.85
2022-08-19T23:35:09.654Z,21.84
2022-08-19T23:37:38.213Z,21.84
2022-08-19T23:40:09.990Z,21.83
2022-08-19T23:42:43.070Z,21.83
2022-08-19T23:45:13.388Z,21.82
2022-08-19T23:47:42.375Z,21.80
2022-08-19T23:50:11.626Z,21.80
2022-08-19T23:52:53.452Z,21.80
